sensor_id;sensor_type;location;lat;lon;timestamp;temperature;humidity
2190;DHT22;1101;51.056;7.262;2023-06-14T00:01:59;18.10;53.50
2190;DHT22;1101;51.056;7.262;2023-06-14T00:04:27;18.10;53.70
2190;DHT22;1101;51.056;7.262;2023-06-14T00:06:56;18.10;53.70
2190;DHT22;1101;51.056;7.262;2023-06-14T00:09:24;18.00;53.70
2190;DHT22;1101;51.056;7.262;2023-06-14T00:11:52;17.90;53.80
2190;DHT22;1101;51.056;7.262;2023-06-14T00:14:20;17.90;53.90
2190;DHT22;1101;51.056;7.262;2023-06-14T00:16:48;17.80;54.00
2190;DHT22;1101;51.056;7.262;2023-06-14T00:19:15;17.80;54.00
2190;DHT22;1101;51.056;7.262;2023-06-14T00:21:43;17.80;54.10
2190;DHT22;1101;51.056;7.262;2023-06-14T00:24:13;17.80;54.10
2190;DHT22;1101;51.056;7.262;2023-06-14T00:26:41;17.70;54.00
2190;DHT22;1101;51.056;7.262;2023-06-14T00:29:09;17.70;54.10
2190;DHT22;1101;51.056;7.262;2023-06-14T00:31:37;17.60;54.00
2190;DHT22;1101;51.056;7.262;2023-06-14T00:34:04;17.60;54.10
2190;DHT22;1101;51.056;7.262;2023-06-14T00:36:32;17.50;54.10
2190;DHT22;1101;51.056;7.262;2023-06-14T00:39:00;17.50;54.20
2190;DHT22;1101;51.056;7.262;2023-06-14T00:41:29;17.40;54.20
2190;DHT22;1101;51.056;7.262;2023-06-14T00:43:57;17.40;54.30
2190;DHT22;1101;51.056;7.262;2023-06-14T00:46:26;17.40;54.40
2190;DHT22;1101;51.056;7.262;2023-06-14T00:48:55;17.30;54.30
2190;DHT22;1101;51.056;7.262;2023-06-14T00:51:23;17.30;54.30
2190;DHT22;1101;51.056;7.262;2023-06-14T00:53:51;17.20;54.30
2190;DHT22;1101;51.056;7.262;2023-06-14T00:56:19;17.20;54.50
2190;DHT22;1101;51.056;7.262;2023-06-14T00:58:49;17.30;54.60
2190;DHT22;1101;51.056;7.262;2023-06-14T01:01:17;17.10;54.50
2190;DHT22;1101;51.056;7.262;2023-06-14T01:03:45;17.10;54.60
2190;DHT22;1101;51.056;7.262;2023-06-14T01:06:20;17.10;54.50
2190;DHT22;1101;51.056;7.262;2023-06-14T01:09:03;17.10;54.70
2190;DHT22;1101;51.056;7.262;2023-06-14T01:11:36;17.00;54.60
2190;DHT22;1101;51.056;7.262;2023-06-14T01:14:07;17.00;54.60
2190;DHT22;1101;51.056;7.262;2023-06-14T01:16:37;16.90;54.70
2190;DHT22;1101;51.056;7.262;2023-06-14T01:19:10;16.90;54.80
2190;DHT22;1101;51.056;7.262;2023-06-14T01:21:40;16.90;54.80
2190;DHT22;1101;51.056;7.262;2023-06-14T01:24:10;16.90;54.80
2190;DHT22;1101;51.056;7.262;2023-06-14T01:26:38;16.90;54.80
2190;DHT22;1101;51.056;7.262;2023-06-14T01:29:13;16.90;54.80
2190;DHT22;1101;51.056;7.262;2023-06-14T01:31:43;16.80;54.70
2190;DHT22;1101;51.056;7.262;2023-06-14T01:34:11;16.90;54.70
2190;DHT22;1101;51.056;7.262;2023-06-14T01:36:41;16.90;54.70
2190;DHT22;1101;51.056;7.262;2023-06-14T01:39:14;16.90;54.60
2190;DHT22;1101;51.056;7.262;2023-06-14T01:41:43;16.90;54.50
2190;DHT22;1101;51.056;7.262;2023-06-14T01:44:12;17.00;54.60
2190;DHT22;1101;51.056;7.262;2023-06-14T01:46:42;17.00;54.50
2190;DHT22;1101;51.056;7.262;2023-06-14T01:49:11;17.00;54.50
2190;DHT22;1101;51.056;7.262;2023-06-14T01:51:39;17.00;54.50
2190;DHT22;1101;51.056;7.262;2023-06-14T01:54:07;17.00;54.40
2190;DHT22;1101;51.056;7.262;2023-06-14T01:56:36;17.00;54.40
2190;DHT22;1101;51.056;7.262;2023-06-14T01:59:04;17.00;54.40
2190;DHT22;1101;51.056;7.262;2023-06-14T02:01:31;17.00;54.30
2190;DHT22;1101;51.056;7.262;2023-06-14T02:04:01;17.00;54.30
2190;DHT22;1101;51.056;7.262;2023-06-14T02:06:28;17.00;54.30
2190;DHT22;1101;51.056;7.262;2023-06-14T02:08:56;17.00;54.30
2190;DHT22;1101;51.056;7.262;2023-06-14T02:11:24;17.00;54.30
2190;DHT22;1101;51.056;7.262;2023-06-14T02:13:53;17.00;54.30
2190;DHT22;1101;51.056;7.262;2023-06-14T02:16:22;16.90;54.30
2190;DHT22;1101;51.056;7.262;2023-06-14T02:18:51;16.90;54.30
2190;DHT22;1101;51.056;7.262;2023-06-14T02:21:19;16.90;54.30
2190;DHT22;1101;51.056;7.262;2023-06-14T02:23:47;16.90;55.00
2190;DHT22;1101;51.056;7.262;2023-06-14T02:26:14;16.90;54.40
2190;DHT22;1101;51.056;7.262;2023-06-14T02:28:42;16.80;54.40
2190;DHT22;1101;51.056;7.262;2023-06-14T02:31:11;16.80;54.40
2190;DHT22;1101;51.056;7.262;2023-06-14T02:33:39;16.80;54.50
2190;DHT22;1101;51.056;7.262;2023-06-14T02:36:07;16.80;54.60
2190;DHT22;1101;51.056;7.262;2023-06-14T02:38:35;16.70;54.50
2190;DHT22;1101;51.056;7.262;2023-06-14T02:41:02;16.70;54.60
2190;DHT22;1101;51.056;7.262;2023-06-14T02:43:30;16.70;54.60
2190;DHT22;1101;51.056;7.262;2023-06-14T02:45:58;16.60;54.60
2190;DHT22;1101;51.056;7.262;2023-06-14T02:48:27;16.60;54.60
2190;DHT22;1101;51.056;7.262;2023-06-14T02:50:55;16.50;54.60
2190;DHT22;1101;51.056;7.262;2023-06-14T02:53:23;16.50;54.60
2190;DHT22;1101;51.056;7.262;2023-06-14T02:55:51;16.40;54.60
2190;DHT22;1101;51.056;7.262;2023-06-14T02:58:19;16.40;54.70
2190;DHT22;1101;51.056;7.262;2023-06-14T03:00:47;16.30;54.60
2190;DHT22;1101;51.056;7.262;2023-06-14T03:03:14;16.20;54.60
2190;DHT22;1101;51.056;7.262;2023-06-14T03:05:46;16.20;54.80
2190;DHT22;1101;51.056;7.262;2023-06-14T03:08:16;16.20;54.90
2190;DHT22;1101;51.056;7.262;2023-06-14T03:10:46;16.20;54.90
2190;DHT22;1101;51.056;7.262;2023-06-14T03:13:14;16.10;54.90
2190;DHT22;1101;51.056;7.262;2023-06-14T03:15:42;16.10;54.90
2190;DHT22;1101;51.056;7.262;2023-06-14T03:18:11;16.10;55.00
2190;DHT22;1101;51.056;7.262;2023-06-14T03:20:39;16.10;55.00
2190;DHT22;1101;51.056;7.262;2023-06-14T03:23:08;16.00;55.00
2190;DHT22;1101;51.056;7.262;2023-06-14T03:25:36;16.00;55.00
2190;DHT22;1101;51.056;7.262;2023-06-14T03:28:05;16.00;55.00
2190;DHT22;1101;51.056;7.262;2023-06-14T03:30:33;15.90;55.10
2190;DHT22;1101;51.056;7.262;2023-06-14T03:33:01;15.90;55.20
2190;DHT22;1101;51.056;7.262;2023-06-14T03:35:29;15.90;55.20
2190;DHT22;1101;51.056;7.262;2023-06-14T03:37:56;15.90;55.30
2190;DHT22;1101;51.056;7.262;2023-06-14T03:40:25;15.80;55.40
2190;DHT22;1101;51.056;7.262;2023-06-14T03:42:54;15.80;55.40
2190;DHT22;1101;51.056;7.262;2023-06-14T03:45:21;15.80;55.40
2190;DHT22;1101;51.056;7.262;2023-06-14T03:47:49;15.70;55.40
2190;DHT22;1101;51.056;7.262;2023-06-14T03:50:18;15.70;55.50
2190;DHT22;1101;51.056;7.262;2023-06-14T03:52:47;15.60;55.60
2190;DHT22;1101;51.056;7.262;2023-06-14T03:55:15;15.60;55.70
2190;DHT22;1101;51.056;7.262;2023-06-14T03:57:47;15.60;55.80
2190;DHT22;1101;51.056;7.262;2023-06-14T04:00:16;15.70;56.10
2190;DHT22;1101;51.056;7.262;2023-06-14T04:02:44;15.50;55.90
2190;DHT22;1101;51.056;7.262;2023-06-14T04:05:13;15.50;55.90
2190;DHT22;1101;51.056;7.262;2023-06-14T04:07:42;15.50;56.10
2190;DHT22;1101;51.056;7.262;2023-06-14T04:10:11;15.50;56.10
2190;DHT22;1101;51.056;7.262;2023-06-14T04:12:40;15.50;56.20
2190;DHT22;1101;51.056;7.262;2023-06-14T04:15:11;15.50;56.10
2190;DHT22;1101;51.056;7.262;2023-06-14T04:17:43;15.40;56.30
2190;DHT22;1101;51.056;7.262;2023-06-14T04:20:11;15.40;56.50
2190;DHT22;1101;51.056;7.262;2023-06-14T04:22:38;15.50;56.70
2190;DHT22;1101;51.056;7.262;2023-06-14T04:25:08;15.50;56.90
2190;DHT22;1101;51.056;7.262;2023-06-14T04:27:36;15.50;57.00
2190;DHT22;1101;51.056;7.262;2023-06-14T04:30:05;15.50;56.80
2190;DHT22;1101;51.056;7.262;2023-06-14T04:32:35;15.50;56.70
2190;DHT22;1101;51.056;7.262;2023-06-14T04:35:07;15.60;56.80
2190;DHT22;1101;51.056;7.262;2023-06-14T04:37:35;15.60;56.90
2190;DHT22;1101;51.056;7.262;2023-06-14T04:40:07;15.60;56.90
2190;DHT22;1101;51.056;7.262;2023-06-14T04:42:38;15.60;56.80
2190;DHT22;1101;51.056;7.262;2023-06-14T04:45:07;15.60;56.70
2190;DHT22;1101;51.056;7.262;2023-06-14T04:47:37;15.70;57.00
2190;DHT22;1101;51.056;7.262;2023-06-14T04:50:05;15.70;57.30
2190;DHT22;1101;51.056;7.262;2023-06-14T04:52:33;15.70;57.40
2190;DHT22;1101;51.056;7.262;2023-06-14T04:55:01;15.70;57.60
2190;DHT22;1101;51.056;7.262;2023-06-14T04:57:30;15.80;57.50
2190;DHT22;1101;51.056;7.262;2023-06-14T04:59:58;15.80;57.60
2190;DHT22;1101;51.056;7.262;2023-06-14T05:02:30;15.80;57.60
2190;DHT22;1101;51.056;7.262;2023-06-14T05:05:00;15.90;57.80
2190;DHT22;1101;51.056;7.262;2023-06-14T05:07:28;15.90;57.60
2190;DHT22;1101;51.056;7.262;2023-06-14T05:09:56;16.00;57.70
2190;DHT22;1101;51.056;7.262;2023-06-14T05:12:24;16.00;57.60
2190;DHT22;1101;51.056;7.262;2023-06-14T05:14:51;16.00;57.50
2190;DHT22;1101;51.056;7.262;2023-06-14T05:17:19;16.00;57.40
2190;DHT22;1101;51.056;7.262;2023-06-14T05:19:47;16.10;57.50
2190;DHT22;1101;51.056;7.262;2023-06-14T05:22:17;16.10;57.40
2190;DHT22;1101;51.056;7.262;2023-06-14T05:24:46;16.20;57.50
2190;DHT22;1101;51.056;7.262;2023-06-14T05:27:14;16.20;57.50
2190;DHT22;1101;51.056;7.262;2023-06-14T05:29:42;16.30;57.50
2190;DHT22;1101;51.056;7.262;2023-06-14T05:32:10;16.30;57.50
2190;DHT22;1101;51.056;7.262;2023-06-14T05:34:38;16.40;57.60
2190;DHT22;1101;51.056;7.262;2023-06-14T05:37:06;16.40;57.60
2190;DHT22;1101;51.056;7.262;2023-06-14T05:39:35;16.40;57.60
2190;DHT22;1101;51.056;7.262;2023-06-14T05:42:04;16.50;57.60
2190;DHT22;1101;51.056;7.262;2023-06-14T05:44:32;16.60;57.70
2190;DHT22;1101;51.056;7.262;2023-06-14T05:47:00;16.60;57.50
2190;DHT22;1101;51.056;7.262;2023-06-14T05:49:28;16.70;57.70
2190;DHT22;1101;51.056;7.262;2023-06-14T05:51:56;16.70;57.60
2190;DHT22;1101;51.056;7.262;2023-06-14T05:54:23;16.80;57.60
2190;DHT22;1101;51.056;7.262;2023-06-14T05:56:53;16.80;57.60
2190;DHT22;1101;51.056;7.262;2023-06-14T05:59:20;16.90;57.80
2190;DHT22;1101;51.056;7.262;2023-06-14T06:01:48;16.90;57.50
2190;DHT22;1101;51.056;7.262;2023-06-14T06:04:16;17.00;57.70
2190;DHT22;1101;51.056;7.262;2023-06-14T06:06:45;17.10;57.50
2190;DHT22;1101;51.056;7.262;2023-06-14T06:09:13;17.10;57.30
2190;DHT22;1101;51.056;7.262;2023-06-14T06:11:41;17.20;57.40
2190;DHT22;1101;51.056;7.262;2023-06-14T06:14:20;17.30;57.50
2190;DHT22;1101;51.056;7.262;2023-06-14T06:16:48;17.40;57.30
2190;DHT22;1101;51.056;7.262;2023-06-14T06:19:16;17.50;57.40
2190;DHT22;1101;51.056;7.262;2023-06-14T06:21:44;17.50;57.20
2190;DHT22;1101;51.056;7.262;2023-06-14T06:24:12;17.60;57.40
2190;DHT22;1101;51.056;7.262;2023-06-14T06:26:40;17.70;57.30
2190;DHT22;1101;51.056;7.262;2023-06-14T06:29:08;17.80;57.40
2190;DHT22;1101;51.056;7.262;2023-06-14T06:31:38;17.80;57.10
2190;DHT22;1101;51.056;7.262;2023-06-14T06:34:05;17.90;57.10
2190;DHT22;1101;51.056;7.262;2023-06-14T06:36:33;17.90;57.10
2190;DHT22;1101;51.056;7.262;2023-06-14T06:39:01;18.10;57.20
2190;DHT22;1101;51.056;7.262;2023-06-14T06:41:37;18.10;57.20
2190;DHT22;1101;51.056;7.262;2023-06-14T06:44:06;18.20;57.10
2190;DHT22;1101;51.056;7.262;2023-06-14T06:46:34;18.30;57.20
2190;DHT22;1101;51.056;7.262;2023-06-14T06:49:08;18.30;57.10
2190;DHT22;1101;51.056;7.262;2023-06-14T06:51:36;18.50;57.00
2190;DHT22;1101;51.056;7.262;2023-06-14T06:54:04;18.60;56.90
2190;DHT22;1101;51.056;7.262;2023-06-14T06:56:33;18.60;56.80
2190;DHT22;1101;51.056;7.262;2023-06-14T06:59:01;18.70;56.80
2190;DHT22;1101;51.056;7.262;2023-06-14T07:01:30;18.80;56.70
2190;DHT22;1101;51.056;7.262;2023-06-14T07:04:00;18.90;56.70
2190;DHT22;1101;51.056;7.262;2023-06-14T07:06:35;18.90;56.60
2190;DHT22;1101;51.056;7.262;2023-06-14T07:09:05;19.00;56.60
2190;DHT22;1101;51.056;7.262;2023-06-14T07:11:34;19.10;56.50
2190;DHT22;1101;51.056;7.262;2023-06-14T07:14:02;19.10;56.30
2190;DHT22;1101;51.056;7.262;2023-06-14T07:16:30;19.20;56.30
2190;DHT22;1101;51.056;7.262;2023-06-14T07:18:58;19.30;56.20
2190;DHT22;1101;51.056;7.262;2023-06-14T07:21:26;19.40;56.20
2190;DHT22;1101;51.056;7.262;2023-06-14T07:23:56;19.40;56.10
2190;DHT22;1101;51.056;7.262;2023-06-14T07:26:24;19.50;56.10
2190;DHT22;1101;51.056;7.262;2023-06-14T07:28:52;19.60;56.10
2190;DHT22;1101;51.056;7.262;2023-06-14T07:31:20;19.70;56.10
2190;DHT22;1101;51.056;7.262;2023-06-14T07:33:48;19.80;56.10
2190;DHT22;1101;51.056;7.262;2023-06-14T07:36:16;19.90;56.00
2190;DHT22;1101;51.056;7.262;2023-06-14T07:38:45;20.10;55.80
2190;DHT22;1101;51.056;7.262;2023-06-14T07:41:14;20.00;55.60
2190;DHT22;1101;51.056;7.262;2023-06-14T07:44:03;20.10;55.60
2190;DHT22;1101;51.056;7.262;2023-06-14T07:46:31;20.30;55.60
2190;DHT22;1101;51.056;7.262;2023-06-14T07:49:07;20.40;55.40
2190;DHT22;1101;51.056;7.262;2023-06-14T07:51:56;20.50;55.30
2190;DHT22;1101;51.056;7.262;2023-06-14T07:54:52;20.60;55.30
2190;DHT22;1101;51.056;7.262;2023-06-14T07:57:21;20.70;55.30
2190;DHT22;1101;51.056;7.262;2023-06-14T07:59:49;20.80;55.10
2190;DHT22;1101;51.056;7.262;2023-06-14T08:02:17;20.90;55.00
2190;DHT22;1101;51.056;7.262;2023-06-14T08:04:45;21.00;55.00
2190;DHT22;1101;51.056;7.262;2023-06-14T08:07:13;21.10;55.00
2190;DHT22;1101;51.056;7.262;2023-06-14T08:09:41;21.20;55.00
2190;DHT22;1101;51.056;7.262;2023-06-14T08:12:09;21.30;54.80
2190;DHT22;1101;51.056;7.262;2023-06-14T08:14:39;21.40;54.70
2190;DHT22;1101;51.056;7.262;2023-06-14T08:17:07;21.40;54.50
2190;DHT22;1101;51.056;7.262;2023-06-14T08:19:35;21.50;54.50
2190;DHT22;1101;51.056;7.262;2023-06-14T08:22:03;21.60;54.30
2190;DHT22;1101;51.056;7.262;2023-06-14T08:24:31;21.70;54.40
2190;DHT22;1101;51.056;7.262;2023-06-14T08:26:59;21.80;54.40
2190;DHT22;1101;51.056;7.262;2023-06-14T08:29:28;21.90;54.30
2190;DHT22;1101;51.056;7.262;2023-06-14T08:31:58;22.00;54.20
2190;DHT22;1101;51.056;7.262;2023-06-14T08:34:27;22.10;54.30
2190;DHT22;1101;51.056;7.262;2023-06-14T08:36:55;22.20;54.10
2190;DHT22;1101;51.056;7.262;2023-06-14T08:39:23;22.30;54.00
2190;DHT22;1101;51.056;7.262;2023-06-14T08:41:52;22.40;53.90
2190;DHT22;1101;51.056;7.262;2023-06-14T08:44:20;22.50;53.90
2190;DHT22;1101;51.056;7.262;2023-06-14T08:46:48;22.60;53.80
2190;DHT22;1101;51.056;7.262;2023-06-14T08:49:19;22.60;53.80
2190;DHT22;1101;51.056;7.262;2023-06-14T08:51:49;22.70;53.70
2190;DHT22;1101;51.056;7.262;2023-06-14T08:54:18;22.80;53.50
2190;DHT22;1101;51.056;7.262;2023-06-14T08:56:47;22.80;53.50
2190;DHT22;1101;51.056;7.262;2023-06-14T08:59:15;22.90;53.60
2190;DHT22;1101;51.056;7.262;2023-06-14T09:01:45;22.90;53.50
2190;DHT22;1101;51.056;7.262;2023-06-14T09:04:35;23.00;53.50
2190;DHT22;1101;51.056;7.262;2023-06-14T09:07:03;23.10;53.40
2190;DHT22;1101;51.056;7.262;2023-06-14T09:09:33;23.20;53.40
2190;DHT22;1101;51.056;7.262;2023-06-14T09:12:07;23.20;53.20
2190;DHT22;1101;51.056;7.262;2023-06-14T09:14:37;23.30;53.30
2190;DHT22;1101;51.056;7.262;2023-06-14T09:17:07;23.30;53.20
2190;DHT22;1101;51.056;7.262;2023-06-14T09:19:37;23.30;53.20
2190;DHT22;1101;51.056;7.262;2023-06-14T09:22:05;23.30;53.30
2190;DHT22;1101;51.056;7.262;2023-06-14T09:24:32;23.40;53.40
2190;DHT22;1101;51.056;7.262;2023-06-14T09:27:00;23.50;53.40
2190;DHT22;1101;51.056;7.262;2023-06-14T09:29:28;23.50;53.30
2190;DHT22;1101;51.056;7.262;2023-06-14T09:31:58;23.70;53.20
2190;DHT22;1101;51.056;7.262;2023-06-14T09:34:26;23.70;53.20
2190;DHT22;1101;51.056;7.262;2023-06-14T09:36:55;23.80;53.30
2190;DHT22;1101;51.056;7.262;2023-06-14T09:39:23;23.90;53.20
2190;DHT22;1101;51.056;7.262;2023-06-14T09:41:51;24.00;53.20
2190;DHT22;1101;51.056;7.262;2023-06-14T09:44:19;24.00;52.90
2190;DHT22;1101;51.056;7.262;2023-06-14T09:46:48;24.00;52.80
2190;DHT22;1101;51.056;7.262;2023-06-14T09:49:16;24.00;52.90
2190;DHT22;1101;51.056;7.262;2023-06-14T09:51:45;24.10;53.10
2190;DHT22;1101;51.056;7.262;2023-06-14T09:54:20;24.20;52.90
2190;DHT22;1101;51.056;7.262;2023-06-14T09:56:48;24.20;52.90
2190;DHT22;1101;51.056;7.262;2023-06-14T09:59:21;24.30;53.00
2190;DHT22;1101;51.056;7.262;2023-06-14T10:01:55;24.40;53.00
2190;DHT22;1101;51.056;7.262;2023-06-14T10:04:24;24.60;52.90
2190;DHT22;1101;51.056;7.262;2023-06-14T10:06:53;24.70;52.80
2190;DHT22;1101;51.056;7.262;2023-06-14T10:09:23;24.80;52.80
2190;DHT22;1101;51.056;7.262;2023-06-14T10:11:50;24.90;52.80
2190;DHT22;1101;51.056;7.262;2023-06-14T10:14:19;25.00;52.70
2190;DHT22;1101;51.056;7.262;2023-06-14T10:16:52;25.10;52.60
2190;DHT22;1101;51.056;7.262;2023-06-14T10:19:25;25.20;52.60
2190;DHT22;1101;51.056;7.262;2023-06-14T10:22:02;25.20;52.60
2190;DHT22;1101;51.056;7.262;2023-06-14T10:24:37;25.20;52.60
2190;DHT22;1101;51.056;7.262;2023-06-14T10:27:07;25.20;52.60
2190;DHT22;1101;51.056;7.262;2023-06-14T10:30:02;25.20;52.50
2190;DHT22;1101;51.056;7.262;2023-06-14T10:32:32;25.30;52.40
2190;DHT22;1101;51.056;7.262;2023-06-14T10:35:01;25.30;52.50
2190;DHT22;1101;51.056;7.262;2023-06-14T10:37:29;25.40;52.40
2190;DHT22;1101;51.056;7.262;2023-06-14T10:39:58;25.50;52.40
2190;DHT22;1101;51.056;7.262;2023-06-14T10:42:29;25.50;52.40
2190;DHT22;1101;51.056;7.262;2023-06-14T10:44:59;25.60;52.40
2190;DHT22;1101;51.056;7.262;2023-06-14T10:47:29;25.60;52.30
2190;DHT22;1101;51.056;7.262;2023-06-14T10:50:03;25.60;52.30
2190;DHT22;1101;51.056;7.262;2023-06-14T10:52:33;25.70;52.30
2190;DHT22;1101;51.056;7.262;2023-06-14T10:55:05;25.80;52.00
2190;DHT22;1101;51.056;7.262;2023-06-14T10:57:36;25.80;51.90
2190;DHT22;1101;51.056;7.262;2023-06-14T11:00:18;25.90;52.00
2190;DHT22;1101;51.056;7.262;2023-06-14T11:05:54;26.10;51.80
2190;DHT22;1101;51.056;7.262;2023-06-14T11:08:56;26.10;51.60
2190;DHT22;1101;51.056;7.262;2023-06-14T11:11:32;26.10;51.80
2190;DHT22;1101;51.056;7.262;2023-06-14T11:14:01;26.20;51.60
2190;DHT22;1101;51.056;7.262;2023-06-14T11:16:29;26.20;51.60
2190;DHT22;1101;51.056;7.262;2023-06-14T11:19:00;26.20;51.50
2190;DHT22;1101;51.056;7.262;2023-06-14T11:21:31;26.30;51.40
2190;DHT22;1101;51.056;7.262;2023-06-14T11:23:59;26.30;51.30
2190;DHT22;1101;51.056;7.262;2023-06-14T11:26:29;26.40;51.30
2190;DHT22;1101;51.056;7.262;2023-06-14T11:28:59;26.50;51.10
2190;DHT22;1101;51.056;7.262;2023-06-14T11:31:28;26.60;50.90
2190;DHT22;1101;51.056;7.262;2023-06-14T11:33:58;26.50;50.70
2190;DHT22;1101;51.056;7.262;2023-06-14T11:36:27;26.60;50.70
2190;DHT22;1101;51.056;7.262;2023-06-14T11:39:00;26.50;50.40
2190;DHT22;1101;51.056;7.262;2023-06-14T11:41:37;26.60;50.60
2190;DHT22;1101;51.056;7.262;2023-06-14T11:44:06;26.70;50.50
2190;DHT22;1101;51.056;7.262;2023-06-14T11:46:34;26.70;50.10
2190;DHT22;1101;51.056;7.262;2023-06-14T11:49:02;26.80;50.20
2190;DHT22;1101;51.056;7.262;2023-06-14T11:51:32;26.80;50.30
2190;DHT22;1101;51.056;7.262;2023-06-14T11:54:00;26.80;50.40
2190;DHT22;1101;51.056;7.262;2023-06-14T11:56:29;26.90;50.30
2190;DHT22;1101;51.056;7.262;2023-06-14T11:58:58;27.00;50.20
2190;DHT22;1101;51.056;7.262;2023-06-14T12:01:29;26.90;50.20
2190;DHT22;1101;51.056;7.262;2023-06-14T12:03:59;27.00;50.50
2190;DHT22;1101;51.056;7.262;2023-06-14T12:06:28;27.00;50.40
2190;DHT22;1101;51.056;7.262;2023-06-14T12:08:59;27.10;50.40
2190;DHT22;1101;51.056;7.262;2023-06-14T12:11:33;27.20;50.20
2190;DHT22;1101;51.056;7.262;2023-06-14T12:14:03;27.20;50.20
2190;DHT22;1101;51.056;7.262;2023-06-14T12:16:34;27.30;50.10
2190;DHT22;1101;51.056;7.262;2023-06-14T12:19:08;27.40;50.00
2190;DHT22;1101;51.056;7.262;2023-06-14T12:21:38;27.30;49.60
2190;DHT22;1101;51.056;7.262;2023-06-14T12:24:07;27.20;49.80
2190;DHT22;1101;51.056;7.262;2023-06-14T12:26:38;27.20;49.80
2190;DHT22;1101;51.056;7.262;2023-06-14T12:29:07;27.20;49.70
2190;DHT22;1101;51.056;7.262;2023-06-14T12:31:37;27.20;49.90
2190;DHT22;1101;51.056;7.262;2023-06-14T12:34:05;27.30;49.90
2190;DHT22;1101;51.056;7.262;2023-06-14T12:36:33;27.40;49.40
2190;DHT22;1101;51.056;7.262;2023-06-14T12:39:02;27.30;49.30
2190;DHT22;1101;51.056;7.262;2023-06-14T12:41:30;27.30;49.00
2190;DHT22;1101;51.056;7.262;2023-06-14T12:43:59;27.30;49.60
2190;DHT22;1101;51.056;7.262;2023-06-14T12:46:30;27.20;49.70
2190;DHT22;1101;51.056;7.262;2023-06-14T12:49:00;27.30;49.60
2190;DHT22;1101;51.056;7.262;2023-06-14T12:51:28;27.40;49.60
2190;DHT22;1101;51.056;7.262;2023-06-14T12:53:56;27.50;49.20
2190;DHT22;1101;51.056;7.262;2023-06-14T12:56:23;27.50;48.90
2190;DHT22;1101;51.056;7.262;2023-06-14T12:58:52;27.40;48.20
2190;DHT22;1101;51.056;7.262;2023-06-14T13:01:20;27.40;48.60
2190;DHT22;1101;51.056;7.262;2023-06-14T13:03:48;27.40;48.90
2190;DHT22;1101;51.056;7.262;2023-06-14T13:06:20;27.30;48.70
2190;DHT22;1101;51.056;7.262;2023-06-14T13:08:48;27.20;49.00
2190;DHT22;1101;51.056;7.262;2023-06-14T13:11:16;27.30;49.30
2190;DHT22;1101;51.056;7.262;2023-06-14T13:13:44;27.40;49.10
2190;DHT22;1101;51.056;7.262;2023-06-14T13:16:12;27.50;49.20
2190;DHT22;1101;51.056;7.262;2023-06-14T13:18:41;27.60;49.40
2190;DHT22;1101;51.056;7.262;2023-06-14T13:21:09;27.70;49.30
2190;DHT22;1101;51.056;7.262;2023-06-14T13:23:38;27.70;48.90
2190;DHT22;1101;51.056;7.262;2023-06-14T13:26:06;27.40;48.50
2190;DHT22;1101;51.056;7.262;2023-06-14T13:28:33;27.10;48.90
2190;DHT22;1101;51.056;7.262;2023-06-14T13:31:01;27.00;49.40
2190;DHT22;1101;51.056;7.262;2023-06-14T13:33:29;27.00;49.40
2190;DHT22;1101;51.056;7.262;2023-06-14T13:35:57;26.90;49.30
2190;DHT22;1101;51.056;7.262;2023-06-14T13:38:25;26.70;48.70
2190;DHT22;1101;51.056;7.262;2023-06-14T13:40:54;26.50;49.00
2190;DHT22;1101;51.056;7.262;2023-06-14T13:43:22;26.30;49.10
2190;DHT22;1101;51.056;7.262;2023-06-14T13:45:50;26.10;49.70
2190;DHT22;1101;51.056;7.262;2023-06-14T13:48:17;26.10;49.80
2190;DHT22;1101;51.056;7.262;2023-06-14T13:50:46;26.10;48.90
2190;DHT22;1101;51.056;7.262;2023-06-14T13:53:14;26.10;49.00
2190;DHT22;1101;51.056;7.262;2023-06-14T13:55:42;26.20;48.70
2190;DHT22;1101;51.056;7.262;2023-06-14T13:58:11;26.10;48.90
2190;DHT22;1101;51.056;7.262;2023-06-14T14:00:41;25.90;49.00
2190;DHT22;1101;51.056;7.262;2023-06-14T14:03:08;25.70;49.40
2190;DHT22;1101;51.056;7.262;2023-06-14T14:05:36;25.80;49.80
2190;DHT22;1101;51.056;7.262;2023-06-14T14:08:04;25.90;49.80
2190;DHT22;1101;51.056;7.262;2023-06-14T14:10:32;26.00;49.60
2190;DHT22;1101;51.056;7.262;2023-06-14T14:13:00;26.20;49.60
2190;DHT22;1101;51.056;7.262;2023-06-14T14:15:30;26.30;49.50
2190;DHT22;1101;51.056;7.262;2023-06-14T14:18:01;26.40;49.30
2190;DHT22;1101;51.056;7.262;2023-06-14T14:20:30;26.40;49.10
2190;DHT22;1101;51.056;7.262;2023-06-14T14:22:59;26.40;49.30
2190;DHT22;1101;51.056;7.262;2023-06-14T14:25:26;26.50;49.30
2190;DHT22;1101;51.056;7.262;2023-06-14T14:27:54;26.40;48.70
2190;DHT22;1101;51.056;7.262;2023-06-14T14:30:22;26.20;48.80
2190;DHT22;1101;51.056;7.262;2023-06-14T14:32:51;26.00;49.60
2190;DHT22;1101;51.056;7.262;2023-06-14T14:35:19;26.10;50.00
2190;DHT22;1101;51.056;7.262;2023-06-14T14:37:51;26.30;49.90
2190;DHT22;1101;51.056;7.262;2023-06-14T14:40:20;26.50;49.70
2190;DHT22;1101;51.056;7.262;2023-06-14T14:42:48;26.60;49.70
2190;DHT22;1101;51.056;7.262;2023-06-14T14:45:16;26.80;50.20
2190;DHT22;1101;51.056;7.262;2023-06-14T14:47:44;26.90;49.60
2190;DHT22;1101;51.056;7.262;2023-06-14T14:50:13;27.00;49.20
2190;DHT22;1101;51.056;7.262;2023-06-14T14:52:42;27.00;49.40
2190;DHT22;1101;51.056;7.262;2023-06-14T14:55:09;27.00;49.30
2190;DHT22;1101;51.056;7.262;2023-06-14T14:57:37;27.00;49.30
2190;DHT22;1101;51.056;7.262;2023-06-14T15:00:06;26.90;49.30
2190;DHT22;1101;51.056;7.262;2023-06-14T15:02:34;26.90;49.30
2190;DHT22;1101;51.056;7.262;2023-06-14T15:05:03;27.10;49.30
2190;DHT22;1101;51.056;7.262;2023-06-14T15:07:32;27.20;49.20
2190;DHT22;1101;51.056;7.262;2023-06-14T15:10:00;27.20;48.90
2190;DHT22;1101;51.056;7.262;2023-06-14T15:12:28;27.20;48.80
2190;DHT22;1101;51.056;7.262;2023-06-14T15:14:56;27.20;48.70
2190;DHT22;1101;51.056;7.262;2023-06-14T15:17:24;27.20;48.70
2190;DHT22;1101;51.056;7.262;2023-06-14T15:19:52;27.30;48.70
2190;DHT22;1101;51.056;7.262;2023-06-14T15:22:20;27.40;48.80
2190;DHT22;1101;51.056;7.262;2023-06-14T15:24:49;27.40;48.80
2190;DHT22;1101;51.056;7.262;2023-06-14T15:27:17;27.50;48.70
2190;DHT22;1101;51.056;7.262;2023-06-14T15:29:45;27.60;48.70
2190;DHT22;1101;51.056;7.262;2023-06-14T15:32:17;27.60;48.60
2190;DHT22;1101;51.056;7.262;2023-06-14T15:34:44;27.40;47.90
2190;DHT22;1101;51.056;7.262;2023-06-14T15:37:12;27.40;48.00
2190;DHT22;1101;51.056;7.262;2023-06-14T15:39:40;27.30;47.50
2190;DHT22;1101;51.056;7.262;2023-06-14T15:42:09;27.20;47.70
2190;DHT22;1101;51.056;7.262;2023-06-14T15:44:38;27.20;47.50
2190;DHT22;1101;51.056;7.262;2023-06-14T15:47:08;27.20;47.80
2190;DHT22;1101;51.056;7.262;2023-06-14T15:49:36;27.20;47.80
2190;DHT22;1101;51.056;7.262;2023-06-14T15:52:04;27.30;47.80
2190;DHT22;1101;51.056;7.262;2023-06-14T15:54:32;27.30;47.90
2190;DHT22;1101;51.056;7.262;2023-06-14T15:57:00;27.40;47.90
2190;DHT22;1101;51.056;7.262;2023-06-14T15:59:29;27.50;48.00
2190;DHT22;1101;51.056;7.262;2023-06-14T16:01:57;27.70;47.90
2190;DHT22;1101;51.056;7.262;2023-06-14T16:04:25;27.80;47.60
2190;DHT22;1101;51.056;7.262;2023-06-14T16:06:53;27.90;47.50
2190;DHT22;1101;51.056;7.262;2023-06-14T16:09:21;27.90;47.30
2190;DHT22;1101;51.056;7.262;2023-06-14T16:11:49;27.80;46.90
2190;DHT22;1101;51.056;7.262;2023-06-14T16:14:17;27.70;46.90
2190;DHT22;1101;51.056;7.262;2023-06-14T16:16:46;27.60;47.20
2190;DHT22;1101;51.056;7.262;2023-06-14T16:19:17;27.60;47.50